createdAt,value
2023-01-17T00:02:10.618Z,8.55
2023-01-17T00:04:29.141Z,6.65
2023-01-17T00:06:46.178Z,6.90
2023-01-17T00:09:03.197Z,9.02
2023-01-17T00:11:21.142Z,5.43
2023-01-17T00:13:38.558Z,10.00
2023-01-17T00:15:55.758Z,6.10
2023-01-17T00:18:12.734Z,6.05
2023-01-17T00:20:29.846Z,6.57
2023-01-17T00:22:47.157Z,9.40
2023-01-17T00:25:04.147Z,6.43
2023-01-17T00:27:21.190Z,7.65
2023-01-17T00:29:42.286Z,6.10
2023-01-17T00:31:59.363Z,7.32
2023-01-17T00:34:16.707Z,6.85
2023-01-17T00:36:33.805Z,7.05
2023-01-17T00:38:50.896Z,5.10
2023-01-17T00:41:10.752Z,8.60
2023-01-17T00:43:28.654Z,4.88
2023-01-17T00:45:48.877Z,8.48
2023-01-17T00:48:06.104Z,6.70
2023-01-17T00:50:23.254Z,5.32
2023-01-17T00:52:40.330Z,5.88
2023-01-17T00:54:57.400Z,6.05
2023-01-17T00:57:14.310Z,8.20
2023-01-17T00:59:31.746Z,6.57
2023-01-17T01:01:48.906Z,6.32
2023-01-17T01:04:06.032Z,5.22
2023-01-17T01:06:23.015Z,4.55
2023-01-17T01:08:40.183Z,5.15
2023-01-17T01:10:57.448Z,7.03
2023-01-17T01:13:14.696Z,8.02
2023-01-17T01:15:32.792Z,6.75
2023-01-17T01:17:49.740Z,6.05
2023-01-17T01:20:07.258Z,4.80
2023-01-17T01:22:25.248Z,8.10
2023-01-17T01:24:42.501Z,5.78
2023-01-17T01:26:59.607Z,6.55
2023-01-17T01:29:16.898Z,5.80
2023-01-17T01:31:34.310Z,5.13
2023-01-17T01:33:51.242Z,5.22
2023-01-17T01:36:08.580Z,6.30
2023-01-17T01:38:25.979Z,4.50
2023-01-17T01:40:43.033Z,5.32
2023-01-17T01:43:00.061Z,11.10
2023-01-17T01:45:17.199Z,5.68
2023-01-17T01:47:34.241Z,5.97
2023-01-17T01:49:51.512Z,6.53
2023-01-17T01:52:08.553Z,6.50
2023-01-17T01:54:25.561Z,5.20
2023-01-17T01:56:42.986Z,7.00
2023-01-17T01:59:00.240Z,3.83
2023-01-17T02:01:17.611Z,6.85
2023-01-17T02:03:34.692Z,5.85
2023-01-17T02:05:51.843Z,10.07
2023-01-17T02:08:09.137Z,6.43
2023-01-17T02:10:26.493Z,5.80
2023-01-17T02:12:43.796Z,5.78
2023-01-17T02:15:00.737Z,8.43
2023-01-17T02:17:17.723Z,8.30
2023-01-17T02:19:34.742Z,5.47
2023-01-17T02:21:52.091Z,7.75
2023-01-17T02:24:09.125Z,7.25
2023-01-17T02:26:26.181Z,6.72
2023-01-17T02:28:43.259Z,5.63
2023-01-17T02:31:00.472Z,5.75
2023-01-17T02:33:17.774Z,5.63
2023-01-17T02:35:34.847Z,12.50
2023-01-17T02:37:52.771Z,7.63
2023-01-17T02:40:10.041Z,9.32
2023-01-17T02:42:27.107Z,8.65
2023-01-17T02:44:44.196Z,5.82
2023-01-17T02:47:01.234Z,5.22
2023-01-17T02:49:18.552Z,4.55
2023-01-17T02:51:35.476Z,5.65
2023-01-17T02:53:52.315Z,5.65
2023-01-17T02:56:10.882Z,5.90
2023-01-17T02:58:28.313Z,6.90
2023-01-17T03:00:45.720Z,7.80
2023-01-17T03:03:02.842Z,6.05
2023-01-17T03:05:20.422Z,8.68
2023-01-17T03:07:37.573Z,5.47
2023-01-17T03:09:54.862Z,8.80
2023-01-17T03:12:11.888Z,5.95
2023-01-17T03:14:29.089Z,8.35
2023-01-17T03:16:46.396Z,5.05
2023-01-17T03:19:03.421Z,5.28
2023-01-17T03:21:21.374Z,5.28
2023-01-17T03:23:38.309Z,5.82
2023-01-17T03:25:59.269Z,4.93
2023-01-17T03:28:16.383Z,5.68
2023-01-17T03:30:33.368Z,6.80
2023-01-17T03:32:50.330Z,5.50
2023-01-17T03:35:07.227Z,5.10
2023-01-17T03:37:24.474Z,5.97
2023-01-17T03:39:41.449Z,7.10
2023-01-17T03:41:58.682Z,5.25
2023-01-17T03:44:15.737Z,7.13
2023-01-17T03:46:32.753Z,8.75
2023-01-17T03:48:51.008Z,5.15
2023-01-17T03:51:08.247Z,5.50
2023-01-17T03:53:26.503Z,6.40
2023-01-17T03:55:43.498Z,5.35
2023-01-17T03:58:00.548Z,6.28
2023-01-17T04:00:17.469Z,5.30
2023-01-17T04:02:34.432Z,6.85
2023-01-17T04:04:51.364Z,6.18
2023-01-17T04:07:08.383Z,6.28
2023-01-17T04:09:26.365Z,5.88
2023-01-17T04:11:43.886Z,5.90
2023-01-17T04:14:01.143Z,6.85
2023-01-17T04:16:19.216Z,5.63
2023-01-17T04:18:36.153Z,4.97
2023-01-17T04:20:53.232Z,6.38
2023-01-17T04:23:10.227Z,5.68
2023-01-17T04:25:28.198Z,6.25
2023-01-17T04:27:45.206Z,6.53
2023-01-17T04:30:03.548Z,7.05
2023-01-17T04:32:20.631Z,6.15
2023-01-17T04:34:37.631Z,5.85
2023-01-17T04:36:54.677Z,5.65
2023-01-17T04:39:12.018Z,5.10
2023-01-17T04:41:29.214Z,5.55
2023-01-17T04:43:46.196Z,5.50
2023-01-17T04:46:03.275Z,7.00
2023-01-17T04:48:20.354Z,5.55
2023-01-17T04:50:37.401Z,4.80
2023-01-17T04:52:55.587Z,6.22
2023-01-17T04:55:12.523Z,5.68
2023-01-17T04:57:29.850Z,5.40
2023-01-17T04:59:46.903Z,5.47
2023-01-17T05:02:03.989Z,5.72
2023-01-17T05:04:21.110Z,6.28
2023-01-17T05:06:38.476Z,6.13
2023-01-17T05:08:55.741Z,7.60
2023-01-17T05:11:13.330Z,7.78
2023-01-17T05:13:31.509Z,6.95
2023-01-17T05:15:48.816Z,4.60
2023-01-17T05:18:06.061Z,5.22
2023-01-17T05:20:23.316Z,5.93
2023-01-17T05:22:40.356Z,4.28
2023-01-17T05:24:57.416Z,5.53
2023-01-17T05:27:14.455Z,4.43
2023-01-17T05:29:31.459Z,4.65
2023-01-17T05:31:48.440Z,4.38
2023-01-17T05:34:05.535Z,7.75
2023-01-17T05:36:22.472Z,4.78
2023-01-17T05:38:39.427Z,4.07
2023-01-17T05:40:57.440Z,5.78
2023-01-17T05:43:14.394Z,5.40
2023-01-17T05:45:31.338Z,4.97
2023-01-17T05:47:48.327Z,6.30
2023-01-17T05:50:05.241Z,3.40
2023-01-17T05:52:22.113Z,4.32
2023-01-17T05:54:40.298Z,4.60
2023-01-17T05:56:57.411Z,5.97
2023-01-17T05:59:14.523Z,4.75
2023-01-17T06:01:32.109Z,4.72
2023-01-17T06:03:49.292Z,3.80
2023-01-17T06:06:07.552Z,5.32
2023-01-17T06:08:24.569Z,6.45
2023-01-17T06:10:41.647Z,5.07
2023-01-17T06:12:58.915Z,4.00
2023-01-17T06:15:17.073Z,4.88
2023-01-17T06:17:34.109Z,7.07
2023-01-17T06:19:51.447Z,4.32
2023-01-17T06:22:08.482Z,4.90
2023-01-17T06:24:25.463Z,4.20
2023-01-17T06:26:42.648Z,5.32
2023-01-17T06:29:00.983Z,6.18
2023-01-17T06:31:18.080Z,3.90
2023-01-17T06:33:35.360Z,4.20
2023-01-17T06:35:52.284Z,3.42
2023-01-17T06:38:10.571Z,4.28
2023-01-17T06:40:27.596Z,2.75
2023-01-17T06:42:44.627Z,5.47
2023-01-17T06:45:01.635Z,4.20
2023-01-17T06:47:18.872Z,7.95
2023-01-17T06:49:35.867Z,7.70
2023-01-17T06:51:52.863Z,4.57
2023-01-17T06:54:10.184Z,5.50
2023-01-17T06:56:27.532Z,4.72
2023-01-17T06:58:44.469Z,7.20
2023-01-17T07:01:02.381Z,5.28
2023-01-17T07:03:19.679Z,14.15
2023-01-17T07:05:36.616Z,8.80
2023-01-17T07:07:53.698Z,8.60
2023-01-17T07:10:10.721Z,11.60
2023-01-17T07:12:27.717Z,5.25
2023-01-17T07:14:44.996Z,5.68
2023-01-17T07:17:01.849Z,5.10
2023-01-17T07:19:18.882Z,9.05
2023-01-17T07:21:37.147Z,11.48
2023-01-17T07:23:54.464Z,12.52
2023-01-17T07:26:12.500Z,5.38
2023-01-17T07:28:29.523Z,4.00
2023-01-17T07:30:46.791Z,4.68
2023-01-17T07:33:04.095Z,4.53
2023-01-17T07:35:21.319Z,18.67
2023-01-17T07:37:38.213Z,11.32
2023-01-17T07:39:55.494Z,15.10
2023-01-17T07:42:12.569Z,11.77
2023-01-17T07:44:29.844Z,8.93
2023-01-17T07:46:46.914Z,10.38
2023-01-17T07:49:04.289Z,5.53
2023-01-17T07:51:21.483Z,7.07
2023-01-17T07:53:38.643Z,6.47
2023-01-17T07:55:56.729Z,10.75
2023-01-17T07:58:13.681Z,9.32
2023-01-17T08:00:31.761Z,7.88
2023-01-17T08:02:49.054Z,9.07
2023-01-17T08:05:07.360Z,5.32
2023-01-17T08:07:24.575Z,4.40
2023-01-17T08:09:43.167Z,6.15
2023-01-17T08:12:01.440Z,6.43
2023-01-17T08:14:18.741Z,6.22
2023-01-17T08:16:35.851Z,5.28
2023-01-17T08:18:53.229Z,5.20
2023-01-17T08:21:10.299Z,5.53
2023-01-17T08:23:27.205Z,4.68
2023-01-17T08:25:44.210Z,3.60
2023-01-17T08:28:01.378Z,8.25
2023-01-17T08:30:18.732Z,14.80
2023-01-17T08:32:36.033Z,18.35
2023-01-17T08:34:53.206Z,13.02
2023-01-17T08:37:10.249Z,9.45
2023-01-17T08:39:27.517Z,7.15
2023-01-17T08:41:44.458Z,8.05
2023-01-17T08:44:01.534Z,9.95
2023-01-17T08:46:19.277Z,13.52
2023-01-17T08:48:36.324Z,15.13
2023-01-17T08:50:53.398Z,16.65
2023-01-17T08:53:10.469Z,9.82
2023-01-17T08:55:28.493Z,7.97
2023-01-17T08:57:45.447Z,8.25
2023-01-17T09:00:02.746Z,7.13
2023-01-17T09:02:20.035Z,6.97
2023-01-17T09:04:37.446Z,7.97
2023-01-17T09:06:54.747Z,10.57
2023-01-17T09:09:13.009Z,11.48
2023-01-17T09:11:30.068Z,11.20
2023-01-17T09:13:47.149Z,8.48
2023-01-17T09:16:04.410Z,6.57
2023-01-17T09:18:21.788Z,7.97
2023-01-17T09:20:38.743Z,10.32
2023-01-17T09:22:56.006Z,10.30
2023-01-17T09:25:12.992Z,9.40
2023-01-17T09:27:30.061Z,8.13
2023-01-17T09:29:48.431Z,8.93
2023-01-17T09:32:05.592Z,9.27
2023-01-17T09:34:22.815Z,8.75
2023-01-17T09:36:41.071Z,7.45
2023-01-17T09:38:59.601Z,6.53
2023-01-17T09:41:16.929Z,6.57
2023-01-17T09:43:34.315Z,8.93
2023-01-17T09:45:52.458Z,6.00
2023-01-17T09:48:10.613Z,6.40
2023-01-17T09:50:27.961Z,7.20
2023-01-17T09:52:45.250Z,7.00
2023-01-17T09:55:06.124Z,6.85
2023-01-17T09:57:26.235Z,7.30
2023-01-17T09:59:45.677Z,5.20
2023-01-17T10:02:02.974Z,5.20
2023-01-17T10:04:21.417Z,6.90
2023-01-17T10:06:38.802Z,6.38
2023-01-17T10:08:56.242Z,4.95
2023-01-17T10:11:13.707Z,6.07
2023-01-17T10:13:30.832Z,6.10
2023-01-17T10:15:48.086Z,4.55
2023-01-17T10:18:05.442Z,4.93
2023-01-17T10:20:22.788Z,9.50
2023-01-17T10:22:39.713Z,6.80
2023-01-17T10:24:59.775Z,6.95
2023-01-17T10:27:17.071Z,5.47
2023-01-17T10:29:35.143Z,6.05
2023-01-17T10:31:52.441Z,6.07
2023-01-17T10:34:09.692Z,5.43
2023-01-17T10:36:27.741Z,5.20
2023-01-17T10:38:44.745Z,7.13
2023-01-17T10:41:01.819Z,7.45
2023-01-17T10:43:19.916Z,7.10
2023-01-17T10:45:37.252Z,8.23
2023-01-17T10:47:54.640Z,8.15
2023-01-17T10:50:12.714Z,7.68
2023-01-17T10:52:29.812Z,7.35
2023-01-17T10:54:50.583Z,8.65
2023-01-17T10:57:08.074Z,6.78
2023-01-17T10:59:25.131Z,6.68
2023-01-17T11:01:42.296Z,7.88
2023-01-17T11:03:59.664Z,6.93
2023-01-17T11:06:20.677Z,6.05
2023-01-17T11:08:39.828Z,4.32
2023-01-17T11:10:56.755Z,5.93
2023-01-17T11:13:14.170Z,5.03
2023-01-17T11:15:31.476Z,5.80
2023-01-17T11:17:48.450Z,5.82
2023-01-17T11:20:05.377Z,7.57
2023-01-17T11:22:22.681Z,6.93
2023-01-17T11:24:39.979Z,5.35
2023-01-17T11:26:57.218Z,6.55
2023-01-17T11:29:14.080Z,5.45
2023-01-17T11:31:31.491Z,5.10
2023-01-17T11:33:48.745Z,4.53
2023-01-17T11:36:05.855Z,6.00
2023-01-17T11:38:23.211Z,7.47
2023-01-17T11:40:40.464Z,7.55
2023-01-17T11:42:57.575Z,5.75
2023-01-17T11:45:14.863Z,6.13
2023-01-17T11:47:31.933Z,6.63
2023-01-17T11:49:49.255Z,5.75
2023-01-17T11:52:06.255Z,8.43
2023-01-17T11:54:25.882Z,5.93
2023-01-17T11:56:43.469Z,7.57
2023-01-17T11:59:00.537Z,5.97
2023-01-17T12:01:17.551Z,4.97
2023-01-17T12:03:35.663Z,3.95
2023-01-17T12:05:52.689Z,4.43
2023-01-17T12:08:10.039Z,5.78
2023-01-17T12:10:26.971Z,6.45
2023-01-17T12:12:44.996Z,5.40
2023-01-17T12:15:02.061Z,5.28
2023-01-17T12:17:19.402Z,3.88
2023-01-17T12:19:36.375Z,6.32
2023-01-17T12:21:54.768Z,7.28
2023-01-17T12:24:11.820Z,5.88
2023-01-17T12:26:28.739Z,5.15
2023-01-17T12:28:45.859Z,6.68
2023-01-17T12:31:02.943Z,4.95
2023-01-17T12:33:20.116Z,5.28
2023-01-17T12:35:37.024Z,4.43
2023-01-17T12:38:04.448Z,5.55
2023-01-17T12:40:22.074Z,5.32
2023-01-17T12:42:39.250Z,6.63
2023-01-17T12:44:57.566Z,9.10
2023-01-17T12:47:14.518Z,5.32
2023-01-17T12:49:32.399Z,5.25
2023-01-17T12:51:49.703Z,4.35
2023-01-17T12:54:06.847Z,6.07
2023-01-17T12:56:23.841Z,4.80
2023-01-17T12:58:40.861Z,5.80
2023-01-17T13:00:58.225Z,4.53
2023-01-17T13:03:16.696Z,4.38
2023-01-17T13:05:33.905Z,4.05
2023-01-17T13:07:52.229Z,5.88
2023-01-17T13:10:09.219Z,3.55
2023-01-17T13:12:26.334Z,3.90
2023-01-17T13:14:44.267Z,6.05
2023-01-17T13:17:01.246Z,4.78
2023-01-17T13:19:18.233Z,4.13
2023-01-17T13:21:35.506Z,7.03
2023-01-17T13:23:52.801Z,5.95
2023-01-17T13:26:09.880Z,4.20
2023-01-17T13:28:26.901Z,3.90
2023-01-17T13:30:44.203Z,4.15
2023-01-17T13:33:02.285Z,4.95
2023-01-17T13:35:19.317Z,5.70
2023-01-17T13:37:36.614Z,4.63
2023-01-17T13:39:54.590Z,4.78
2023-01-17T13:42:11.619Z,7.50
2023-01-17T13:44:28.706Z,7.63
2023-01-17T13:46:45.659Z,7.68
2023-01-17T13:49:03.054Z,6.75
2023-01-17T13:51:20.050Z,5.65
2023-01-17T13:53:37.171Z,4.38
2023-01-17T13:55:54.417Z,4.43
2023-01-17T13:58:11.618Z,4.90
2023-01-17T14:00:28.654Z,6.13
2023-01-17T14:02:48.273Z,5.88
2023-01-17T14:05:05.246Z,5.18
2023-01-17T14:07:22.315Z,6.47
2023-01-17T14:09:39.357Z,5.97
2023-01-17T14:11:56.403Z,3.53
2023-01-17T14:14:13.732Z,6.55
2023-01-17T14:16:30.934Z,5.40
2023-01-17T14:18:48.079Z,5.63
2023-01-17T14:21:05.206Z,3.58
2023-01-17T14:23:22.328Z,3.28
2023-01-17T14:25:39.362Z,3.97
2023-01-17T14:27:59.570Z,3.90
2023-01-17T14:30:17.027Z,5.78
2023-01-17T14:32:34.130Z,4.18
2023-01-17T14:34:51.513Z,3.30
2023-01-17T14:37:08.561Z,3.78
2023-01-17T14:39:25.624Z,3.10
2023-01-17T14:41:42.634Z,6.97
2023-01-17T14:44:00.068Z,4.82
2023-01-17T14:46:17.020Z,3.83
2023-01-17T14:48:34.400Z,2.65
2023-01-17T14:50:51.334Z,4.28
2023-01-17T14:53:08.486Z,3.33
2023-01-17T14:55:25.592Z,3.90
2023-01-17T14:57:42.882Z,3.63
2023-01-17T14:59:59.991Z,3.97
2023-01-17T15:02:17.335Z,4.40
2023-01-17T15:04:34.697Z,2.90
2023-01-17T15:06:51.942Z,5.13
2023-01-17T15:09:09.139Z,5.88
2023-01-17T15:11:26.170Z,5.65
2023-01-17T15:13:45.143Z,5.22
2023-01-17T15:16:02.840Z,6.40
2023-01-17T15:18:21.194Z,4.72
2023-01-17T15:20:38.430Z,4.43
2023-01-17T15:22:55.498Z,5.72
2023-01-17T15:25:16.159Z,3.53
2023-01-17T15:27:33.377Z,4.40
2023-01-17T15:29:51.311Z,4.82
2023-01-17T15:32:09.646Z,3.97
2023-01-17T15:34:26.748Z,5.75
2023-01-17T15:36:44.004Z,5.20
2023-01-17T15:39:01.194Z,5.47
2023-01-17T15:41:18.125Z,6.45
2023-01-17T15:43:35.032Z,7.45
2023-01-17T15:45:53.050Z,7.70
2023-01-17T15:48:10.464Z,12.25
2023-01-17T15:50:27.476Z,9.52
2023-01-17T15:52:45.899Z,8.95
2023-01-17T15:55:04.253Z,11.25
2023-01-17T15:57:22.005Z,9.57
2023-01-17T15:59:39.965Z,8.55
2023-01-17T16:01:57.623Z,8.65
2023-01-17T16:04:14.797Z,6.32
2023-01-17T16:06:32.926Z,5.90
2023-01-17T16:08:50.298Z,7.63
2023-01-17T16:11:07.360Z,4.75
2023-01-17T16:13:25.299Z,6.00
2023-01-17T16:15:42.770Z,3.63
2023-01-17T16:18:00.222Z,3.08
2023-01-17T16:20:18.552Z,4.20
2023-01-17T16:22:35.513Z,5.90
2023-01-17T16:24:52.767Z,3.70
2023-01-17T16:27:09.987Z,3.38
2023-01-17T16:29:28.137Z,4.32
2023-01-17T16:31:45.497Z,3.03
2023-01-17T16:34:03.555Z,4.82
2023-01-17T16:36:20.925Z,3.35
2023-01-17T16:38:38.379Z,3.97
2023-01-17T16:40:55.697Z,3.10
2023-01-17T16:43:13.207Z,5.05
2023-01-17T16:45:30.530Z,3.33
2023-01-17T16:47:48.923Z,5.70
2023-01-17T16:50:06.466Z,4.93
2023-01-17T16:52:24.554Z,5.65
2023-01-17T16:54:41.641Z,6.60
2023-01-17T16:56:58.805Z,6.07
2023-01-17T16:59:15.890Z,3.63
2023-01-17T17:01:33.028Z,5.80
2023-01-17T17:03:49.969Z,5.15
2023-01-17T17:06:06.993Z,8.07
2023-01-17T17:08:24.121Z,5.18
2023-01-17T17:10:41.572Z,5.78
2023-01-17T17:12:59.820Z,6.43
2023-01-17T17:15:18.015Z,5.95
2023-01-17T17:17:35.373Z,5.25
2023-01-17T17:19:52.349Z,4.18
2023-01-17T17:22:09.300Z,4.32
2023-01-17T17:24:26.595Z,8.15
2023-01-17T17:26:43.667Z,8.48
2023-01-17T17:29:01.566Z,8.30
2023-01-17T17:31:19.692Z,10.23
2023-01-17T17:33:37.092Z,9.38
2023-01-17T17:35:54.444Z,8.70
2023-01-17T17:38:11.849Z,9.35
2023-01-17T17:40:28.927Z,10.18
2023-01-17T17:42:46.033Z,7.30
2023-01-17T17:45:04.005Z,6.80
2023-01-17T17:47:22.314Z,7.20
2023-01-17T17:49:39.463Z,6.22
2023-01-17T17:51:56.978Z,8.98
2023-01-17T17:54:14.049Z,11.80
2023-01-17T17:56:32.516Z,11.70
2023-01-17T17:58:49.868Z,11.60
2023-01-17T18:01:08.034Z,12.13
2023-01-17T18:03:24.984Z,15.85
2023-01-17T18:05:42.041Z,13.10
2023-01-17T18:07:59.342Z,12.93
2023-01-17T18:10:16.555Z,12.45
2023-01-17T18:12:33.674Z,10.93
2023-01-17T18:14:50.684Z,11.65
2023-01-17T18:17:08.828Z,11.27
2023-01-17T18:19:25.856Z,12.63
2023-01-17T18:21:42.940Z,13.07
2023-01-17T18:24:00.397Z,14.00
2023-01-17T18:26:17.353Z,18.95
2023-01-17T18:28:35.569Z,19.33
2023-01-17T18:30:52.644Z,18.00
2023-01-17T18:33:09.798Z,14.95
2023-01-17T18:35:26.935Z,14.77
2023-01-17T18:37:44.015Z,16.27
2023-01-17T18:40:01.070Z,14.02
2023-01-17T18:42:18.527Z,15.57
2023-01-17T18:44:35.889Z,11.73
2023-01-17T18:46:53.209Z,13.90
2023-01-17T18:49:10.212Z,11.10
2023-01-17T18:51:27.288Z,11.55
2023-01-17T18:53:45.621Z,10.57
2023-01-17T18:56:12.265Z,12.25
2023-01-17T18:58:29.583Z,10.23
2023-01-17T19:00:47.045Z,12.27
2023-01-17T19:03:04.393Z,9.70
2023-01-17T19:05:21.345Z,9.80
2023-01-17T19:07:38.446Z,10.73
2023-01-17T19:09:55.673Z,12.18
2023-01-17T19:12:13.074Z,6.47
2023-01-17T19:14:30.065Z,9.93
2023-01-17T19:16:50.072Z,9.38
2023-01-17T19:19:06.976Z,10.63
2023-01-17T19:21:27.162Z,9.85
2023-01-17T19:23:44.184Z,11.23
2023-01-17T19:26:01.267Z,9.02
2023-01-17T19:28:18.771Z,11.30
2023-01-17T19:30:35.859Z,11.77
2023-01-17T19:32:53.997Z,8.98
2023-01-17T19:35:11.369Z,9.43
2023-01-17T19:37:28.559Z,11.55
2023-01-17T19:39:46.588Z,13.38
2023-01-17T19:42:03.617Z,10.52
2023-01-17T19:44:21.034Z,12.52
2023-01-17T19:46:39.333Z,11.07
2023-01-17T19:48:56.650Z,11.70
2023-01-17T19:51:13.894Z,9.82
2023-01-17T19:53:33.637Z,11.65
2023-01-17T19:55:51.065Z,13.43
2023-01-17T19:58:08.434Z,13.10
2023-01-17T20:00:30.044Z,11.07
2023-01-17T20:02:47.429Z,10.00
2023-01-17T20:05:04.804Z,14.65
2023-01-17T20:07:24.601Z,13.70
2023-01-17T20:09:42.939Z,12.10
2023-01-17T20:12:00.323Z,13.10
2023-01-17T20:14:17.699Z,13.60
2023-01-17T20:16:34.847Z,13.48
2023-01-17T20:18:51.985Z,10.88
2023-01-17T20:21:08.986Z,10.25
2023-01-17T20:23:25.911Z,10.27
2023-01-17T20:25:44.932Z,11.13
2023-01-17T20:28:02.536Z,10.85
2023-01-17T20:30:20.818Z,11.68
2023-01-17T20:32:37.868Z,10.70
2023-01-17T20:34:55.055Z,12.10
2023-01-17T20:37:15.785Z,11.05
2023-01-17T20:39:32.885Z,12.73
2023-01-17T20:41:50.191Z,10.68
2023-01-17T20:44:07.528Z,9.75
2023-01-17T20:46:29.069Z,12.15
2023-01-17T20:48:47.310Z,11.23
2023-01-17T20:51:04.614Z,10.27
2023-01-17T20:53:21.583Z,8.93
2023-01-17T20:55:38.636Z,10.85
2023-01-17T20:57:55.912Z,12.52
2023-01-17T21:00:13.586Z,11.55
2023-01-17T21:02:31.821Z,11.77
2023-01-17T21:04:50.018Z,16.35
2023-01-17T21:07:07.010Z,41.75
2023-01-17T21:09:26.077Z,42.50
2023-01-17T21:11:45.882Z,39.65
2023-01-17T21:14:03.258Z,29.50
2023-01-17T21:16:20.947Z,30.48
2023-01-17T21:18:37.970Z,22.35
2023-01-17T21:20:54.924Z,21.25
2023-01-17T21:23:12.423Z,16.17
2023-01-17T21:25:29.674Z,15.68
2023-01-17T21:27:46.923Z,16.83
2023-01-17T21:30:03.893Z,13.02
2023-01-17T21:32:21.145Z,12.45
2023-01-17T21:34:38.193Z,14.30
2023-01-17T21:36:55.388Z,10.65
2023-01-17T21:39:14.063Z,10.80
2023-01-17T21:41:32.154Z,11.27
2023-01-17T21:43:49.208Z,11.77
2023-01-17T21:46:06.379Z,12.07
2023-01-17T21:48:23.759Z,11.23
2023-01-17T21:50:41.026Z,12.02
2023-01-17T21:52:58.225Z,13.57
2023-01-17T21:55:15.306Z,10.77
2023-01-17T21:57:32.461Z,10.45
2023-01-17T21:59:49.807Z,11.13
2023-01-17T22:02:08.160Z,10.70
2023-01-17T22:04:27.378Z,10.68
2023-01-17T22:06:44.487Z,11.52
2023-01-17T22:09:02.027Z,13.40
2023-01-17T22:11:19.002Z,10.70
2023-01-17T22:13:36.418Z,12.35
2023-01-17T22:15:53.792Z,10.20
2023-01-17T22:18:11.410Z,13.57
2023-01-17T22:20:28.370Z,11.60
2023-01-17T22:22:48.163Z,12.93
2023-01-17T22:25:05.434Z,11.63
2023-01-17T22:27:25.036Z,12.10
2023-01-17T22:29:42.136Z,12.20
2023-01-17T22:31:59.620Z,10.88
2023-01-17T22:34:16.926Z,11.93
2023-01-17T22:36:34.429Z,12.48
2023-01-17T22:38:51.629Z,11.10
2023-01-17T22:41:08.960Z,9.73
2023-01-17T22:43:26.133Z,10.15
2023-01-17T22:45:43.277Z,10.88
2023-01-17T22:48:00.594Z,10.88
2023-01-17T22:50:17.747Z,11.10
2023-01-17T22:52:34.689Z,13.00
2023-01-17T22:54:52.923Z,11.70
2023-01-17T22:57:09.910Z,10.00
2023-01-17T22:59:27.037Z,10.90
2023-01-17T23:01:44.062Z,10.70
2023-01-17T23:04:01.442Z,9.63
2023-01-17T23:06:21.510Z,10.07
2023-01-17T23:08:38.729Z,11.55
2023-01-17T23:10:55.781Z,10.38
2023-01-17T23:13:12.884Z,12.10
2023-01-17T23:15:30.323Z,11.77
2023-01-17T23:17:48.404Z,11.02
2023-01-17T23:20:05.792Z,12.18
2023-01-17T23:22:22.976Z,11.02
2023-01-17T23:24:39.965Z,10.98
2023-01-17T23:26:57.528Z,11.68
2023-01-17T23:29:14.867Z,10.57
2023-01-17T23:31:33.474Z,10.18
2023-01-17T23:33:50.806Z,12.02
2023-01-17T23:36:08.226Z,11.68
2023-01-17T23:38:25.698Z,11.57
2023-01-17T23:40:42.740Z,14.30
2023-01-17T23:42:59.859Z,12.10
2023-01-17T23:45:16.814Z,10.85
2023-01-17T23:47:35.298Z,11.25
2023-01-17T23:49:52.566Z,12.32
2023-01-17T23:52:09.549Z,11.43
2023-01-17T23:54:26.838Z,11.23
2023-01-17T23:56:44.886Z,9.10
2023-01-17T23:59:01.992Z,9.68
